Time;durP1;ratioP1;P1;durP2;ratioP2;P2;SDS_P1;SDS_P2;PMS_P1;PMS_P2;Temp;Humidity;BMP_temperature;BMP_pressure;BME280_temperature;BME280_humidity;BME280_pressure;Samples;Min_cycle;Max_cycle;Signal;HPM_P1;HPM_P2
2023/12/08 00:03:46;;;;;;;21.40;11.80;;;;;;;5.82;80.13;99801.91;8315230;28;20422;-56
2023/12/08 00:07:46;;;;;;;25.15;13.13;;;;;;;5.72;80.40;99791.09;8317450;28;20037;-55
2023/12/08 00:11:47;;;;;;;23.35;12.40;;;;;;;5.89;79.75;99784.34;8312213;28;20284;-55
2023/12/08 00:15:47;;;;;;;22.63;11.23;;;;;;;5.83;79.38;99758.88;8316492;28;20285;-54
2023/12/08 00:19:47;;;;;;;21.30;10.73;;;;;;;5.87;78.95;99794.34;8374421;28;20395;-55
2023/12/08 00:23:49;;;;;;;21.42;11.00;;;;;;;5.99;78.39;99758.44;8370586;28;20071;-57
2023/12/08 00:27:49;;;;;;;23.60;10.85;;;;;;;6.10;77.90;99785.19;8372006;28;20095;-58
2023/12/08 00:31:49;;;;;;;22.30;11.35;;;;;;;5.94;78.50;99787.47;8372214;28;20032;-57
2023/12/08 00:35:50;;;;;;;21.35;10.93;;;;;;;5.88;78.71;99778.13;8374388;28;20043;-56
2023/12/08 00:39:50;;;;;;;20.88;10.65;;;;;;;5.91;78.74;99777.88;8371757;28;20383;-57
2023/12/08 00:43:51;;;;;;;23.10;11.68;;;;;;;5.79;79.62;99786.91;8373026;28;20033;-57
2023/12/08 00:47:52;;;;;;;20.45;11.40;;;;;;;5.82;79.16;99756.31;8373146;28;20040;-56
2023/12/08 00:51:52;;;;;;;22.13;10.38;;;;;;;5.89;78.80;99773.63;8367573;28;20036;-56
2023/12/08 00:55:53;;;;;;;22.38;12.27;;;;;;;5.88;79.02;99766.53;8374365;28;20044;-57
2023/12/08 00:59:54;;;;;;;20.95;10.45;;;;;;;6.00;79.38;99808.41;8379513;28;20491;-57
2023/12/08 01:03:54;;;;;;;22.23;11.00;;;;;;;6.09;78.82;99807.66;8379570;28;20036;-55
2023/12/08 01:07:55;;;;;;;20.75;11.18;;;;;;;6.09;78.36;99780.81;8377210;28;20491;-57
2023/12/08 01:11:55;;;;;;;23.65;11.85;;;;;;;5.98;79.32;99789.78;8380850;28;20390;-57
2023/12/08 01:15:55;;;;;;;20.25;11.48;;;;;;;5.79;81.33;99783.38;8377870;28;20056;-57
2023/12/08 01:19:56;;;;;;;25.35;12.90;;;;;;;5.54;83.25;99789.06;8354449;28;20049;-55
2023/12/08 01:23:56;;;;;;;27.77;13.57;;;;;;;5.43;83.85;99765.00;8360380;28;20235;-53
2023/12/08 01:27:57;;;;;;;24.55;12.98;;;;;;;5.41;84.14;99772.31;8323453;28;20041;-56
2023/12/08 01:31:57;;;;;;;26.27;12.98;;;;;;;5.44;83.94;99755.97;8323679;28;20036;-55
2023/12/08 01:35:58;;;;;;;27.55;13.90;;;;;;;5.51;84.45;99767.88;8315454;28;20041;-55
2023/12/08 01:39:58;;;;;;;25.63;13.98;;;;;;;5.50;85.03;99750.09;8319041;28;20552;-54
2023/12/08 01:43:59;;;;;;;26.33;12.40;;;;;;;5.39;84.87;99753.66;8319958;28;20025;-53
2023/12/08 01:47:59;;;;;;;26.25;13.80;;;;;;;5.34;85.50;99749.69;8308652;28;20165;-53
2023/12/08 01:52:00;;;;;;;26.23;13.40;;;;;;;5.34;86.68;99738.97;8329826;28;20044;-56
2023/12/08 01:56:01;;;;;;;26.92;13.02;;;;;;;5.30;86.06;99734.81;8376149;28;20127;-57
2023/12/08 02:00:02;;;;;;;26.38;13.00;;;;;;;5.32;86.42;99736.41;8377909;28;20037;-57
2023/12/08 02:04:20;;;;;;;27.80;12.73;;;;;;;5.40;85.74;99738.47;8336074;27;20847;-59
2023/12/08 02:08:20;;;;;;;25.13;11.95;;;;;;;5.45;85.24;99733.53;8336104;28;20045;-55
2023/12/08 02:12:22;;;;;;;21.27;11.73;;;;;;;5.38;86.10;99714.47;8335340;28;20038;-55
2023/12/08 02:16:29;;;;;;;26.95;13.05;;;;;;;5.46;85.56;99732.59;8335391;28;20072;-56
2023/12/08 02:20:30;;;;;;;25.75;12.15;;;;;;;5.38;85.71;99709.09;8326105;28;20196;-54
2023/12/08 02:24:30;;;;;;;23.73;12.05;;;;;;;5.42;85.47;99709.69;8332581;28;20042;-55
2023/12/08 02:28:31;;;;;;;20.75;11.65;;;;;;;5.41;85.42;99700.81;8335575;28;20080;-55
2023/12/08 02:32:54;;;;;;;23.48;11.80;;;;;;;5.43;85.38;99700.69;8334145;28;20131;-55
2023/12/08 02:36:56;;;;;;;25.27;13.60;;;;;;;5.43;85.50;99695.31;8336542;28;20385;-56
2023/12/08 02:40:57;;;;;;;24.90;11.57;;;;;;;5.38;85.81;99682.31;8334854;28;20037;-54
2023/12/08 02:44:57;;;;;;;27.55;13.18;;;;;;;5.37;86.06;99674.41;8334416;28;20037;-56
2023/12/08 02:48:58;;;;;;;24.67;12.23;;;;;;;5.44;85.32;99664.84;8336457;28;20045;-54
2023/12/08 02:52:58;;;;;;;25.65;12.70;;;;;;;5.44;85.65;99664.84;8305608;28;20668;-54
2023/12/08 02:56:58;;;;;;;24.73;12.50;;;;;;;5.37;85.49;99659.13;8279442;28;20604;-53
2023/12/08 03:00:59;;;;;;;20.10;10.90;;;;;;;5.42;85.85;99661.44;8327564;28;20478;-56
2023/12/08 03:04:59;;;;;;;24.83;12.82;;;;;;;5.40;86.68;99658.06;8300020;28;20506;-55
2023/12/08 03:09:00;;;;;;;22.50;12.23;;;;;;;5.39;86.56;99667.06;8281436;28;20113;-54
2023/12/08 03:13:01;;;;;;;24.00;11.95;;;;;;;5.27;88.46;99658.22;8239244;28;20309;-54
2023/12/08 03:17:01;;;;;;;22.80;11.88;;;;;;;5.21;89.52;99663.22;8259645;28;20440;-56
2023/12/08 03:21:01;;;;;;;27.60;13.38;;;;;;;5.18;89.70;99647.41;8280353;28;20042;-55
2023/12/08 03:25:02;;;;;;;30.08;13.75;;;;;;;5.19;90.29;99649.13;8283220;28;20764;-54
2023/12/08 03:29:02;;;;;;;28.67;13.10;;;;;;;5.09;90.97;99642.84;8255926;28;20102;-54
2023/12/08 03:33:03;;;;;;;28.05;13.18;;;;;;;5.15;91.31;99642.31;8258122;28;20447;-53
2023/12/08 03:37:04;;;;;;;28.42;14.45;;;;;;;5.03;92.39;99616.56;8244826;28;20306;-54
2023/12/08 03:41:04;;;;;;;26.60;14.10;;;;;;;5.01;93.62;99597.09;8253511;28;20439;-52
2023/12/08 03:45:05;;;;;;;29.33;13.85;;;;;;;4.97;93.94;99617.09;8254883;28;20498;-53
2023/12/08 03:49:05;;;;;;;29.83;14.18;;;;;;;4.95;94.44;99621.72;8254411;28;20472;-55
2023/12/08 03:53:06;;;;;;;34.88;15.98;;;;;;;4.93;95.22;99642.41;8266422;28;20064;-56
2023/12/08 03:57:06;;;;;;;36.28;14.55;;;;;;;4.96;95.59;99652.84;8310864;28;20042;-55
2023/12/08 04:01:07;;;;;;;32.70;15.68;;;;;;;4.88;96.81;99631.22;8311534;28;20064;-56
2023/12/08 04:05:07;;;;;;;32.80;15.57;;;;;;;4.86;97.16;99642.06;8309522;28;20053;-56
2023/12/08 04:09:08;;;;;;;36.35;17.02;;;;;;;4.88;97.30;99658.00;8311416;28;20037;-56
2023/12/08 04:13:08;;;;;;;32.03;16.70;;;;;;;5.00;96.73;99670.41;8310493;28;20084;-56
2023/12/08 04:17:09;;;;;;;35.92;16.63;;;;;;;5.01;96.37;99685.47;8308556;28;20500;-56
2023/12/08 04:21:16;;;;;;;29.50;15.43;;;;;;;5.17;95.61;99710.00;8311762;28;20037;-55
2023/12/08 04:25:17;;;;;;;32.92;16.35;;;;;;;5.08;96.18;99694.69;8305095;28;20048;-55
2023/12/08 04:29:17;;;;;;;33.55;15.82;;;;;;;4.99;96.78;99679.38;8309358;28;20087;-55
2023/12/08 04:33:17;;;;;;;34.10;16.27;;;;;;;4.86;97.76;99682.22;8309465;28;20361;-57
2023/12/08 04:37:18;;;;;;;35.13;16.45;;;;;;;4.95;97.61;99669.91;8311167;28;20570;-56
2023/12/08 04:41:18;;;;;;;32.35;15.65;;;;;;;4.98;98.28;99678.56;8300284;28;20119;-56
2023/12/08 04:45:19;;;;;;;31.88;14.90;;;;;;;5.06;97.55;99676.06;8276407;28;20049;-56
2023/12/08 04:49:19;;;;;;;37.15;16.90;;;;;;;4.92;98.08;99659.44;8275808;28;20053;-57
2023/12/08 04:53:20;;;;;;;33.78;15.70;;;;;;;5.03;98.53;99648.72;8269760;28;20224;-53
2023/12/08 04:57:20;;;;;;;37.60;16.63;;;;;;;5.01;98.35;99650.66;8301997;28;20454;-56
2023/12/08 05:01:20;;;;;;;37.28;16.42;;;;;;;4.97;99.93;99646.53;8309175;28;20087;-57
2023/12/08 05:05:21;;;;;;;45.90;18.95;;;;;;;4.96;99.95;99652.84;8309807;28;20040;-57
2023/12/08 05:09:21;;;;;;;41.53;18.02;;;;;;;4.86;100.00;99638.53;8307626;28;20116;-57
2023/12/08 05:13:22;;;;;;;44.85;19.50;;;;;;;4.86;100.00;99647.44;8309451;28;20503;-57
2023/12/08 05:17:22;;;;;;;39.78;19.52;;;;;;;4.94;100.00;99639.59;8308944;28;20045;-55
2023/12/08 05:21:24;;;;;;;42.95;18.55;;;;;;;4.85;99.95;99639.53;8307464;28;20033;-54
2023/12/08 05:25:24;;;;;;;43.88;19.95;;;;;;;4.91;100.00;99644.38;8305458;28;20385;-54
2023/12/08 05:29:25;;;;;;;45.75;20.27;;;;;;;4.82;100.00;99631.75;8308187;28;20042;-58
2023/12/08 05:33:25;;;;;;;44.95;19.60;;;;;;;4.89;100.00;99636.47;8307314;28;20053;-54
2023/12/08 05:37:25;;;;;;;39.78;18.80;;;;;;;4.93;100.00;99634.38;8301897;28;20490;-53
2023/12/08 05:41:26;;;;;;;43.30;19.83;;;;;;;4.90;100.00;99635.47;8308941;28;20034;-54
2023/12/08 05:45:26;;;;;;;42.92;19.20;;;;;;;5.05;100.00;99652.09;8296628;28;20038;-55
2023/12/08 05:49:27;;;;;;;37.63;17.83;;;;;;;5.01;99.73;99640.81;8302222;28;20044;-55
2023/12/08 05:53:27;;;;;;;41.58;19.30;;;;;;;5.01;99.78;99629.25;8300970;28;20065;-55
2023/12/08 05:57:28;;;;;;;46.42;20.10;;;;;;;5.02;99.79;99641.63;8300929;28;20049;-57
2023/12/08 06:01:28;;;;;;;47.08;20.55;;;;;;;5.07;100.00;99650.16;8292439;28;20531;-54
2023/12/08 06:05:29;;;;;;;39.78;18.75;;;;;;;5.07;100.00;99639.44;8302285;28;20037;-54
2023/12/08 06:09:29;;;;;;;45.78;20.25;;;;;;;5.08;100.00;99646.50;8296598;28;20157;-56
2023/12/08 06:13:30;;;;;;;43.75;19.45;;;;;;;5.07;100.00;99655.50;8290134;28;20034;-55
2023/12/08 06:17:30;;;;;;;44.47;20.15;;;;;;;5.17;100.00;99664.47;8299524;28;20708;-55
2023/12/08 06:21:31;;;;;;;40.72;17.90;;;;;;;5.21;100.00;99660.56;8304111;28;20048;-55
2023/12/08 06:25:31;;;;;;;45.97;20.15;;;;;;;5.16;100.00;99660.94;8302542;28;20042;-56
2023/12/08 06:29:32;;;;;;;39.58;17.77;;;;;;;5.21;100.00;99680.16;8296744;28;20045;-54
2023/12/08 06:33:32;;;;;;;46.25;19.85;;;;;;;5.22;100.00;99670.31;8301772;28;20116;-55
2023/12/08 06:37:32;;;;;;;44.03;18.67;;;;;;;5.32;100.00;99671.22;8302028;28;20133;-55
2023/12/08 06:41:33;;;;;;;37.55;17.33;;;;;;;5.44;100.00;99659.50;8303374;28;20420;-55
2023/12/08 06:45:33;;;;;;;44.97;18.08;;;;;;;5.40;100.00;99663.41;8302005;28;20063;-56
2023/12/08 06:49:34;;;;;;;42.83;18.35;;;;;;;5.34;100.00;99666.63;8306635;28;20056;-55
2023/12/08 06:53:34;;;;;;;49.08;19.13;;;;;;;5.41;100.00;99665.09;8302157;28;20053;-52
2023/12/08 06:57:35;;;;;;;41.97;19.35;;;;;;;5.41;100.00;99665.09;8307497;28;20507;-54
2023/12/08 07:01:35;;;;;;;39.95;18.42;;;;;;;5.46;100.00;99668.25;8308703;28;20054;-55
2023/12/08 07:05:36;;;;;;;44.22;20.27;;;;;;;5.44;100.00;99671.06;8310442;28;20509;-55
2023/12/08 07:09:36;;;;;;;35.83;17.58;;;;;;;5.52;100.00;99675.78;8307206;28;20084;-56
2023/12/08 07:13:37;;;;;;;38.85;18.38;;;;;;;5.57;100.00;99662.81;8308851;28;20419;-55
2023/12/08 07:17:37;;;;;;;37.58;17.65;;;;;;;5.59;100.00;99668.91;8309344;28;20402;-56
2023/12/08 07:21:42;;;;;;;36.10;15.82;;;;;;;5.68;100.00;99668.13;8307864;28;20038;-54
2023/12/08 07:25:42;;;;;;;38.65;18.00;;;;;;;5.63;100.00;99667.66;8303719;28;20065;-54
2023/12/08 07:29:43;;;;;;;39.55;18.65;;;;;;;5.62;100.00;99668.66;8309684;28;20057;-53
2023/12/08 07:33:44;;;;;;;42.30;18.05;;;;;;;5.74;100.00;99672.97;8308776;28;20499;-55
2023/12/08 07:37:45;;;;;;;40.47;18.40;;;;;;;5.77;100.00;99675.41;8307338;28;20404;-57
2023/12/08 07:41:46;;;;;;;35.50;17.23;;;;;;;5.80;100.00;99675.13;8309524;28;20096;-59
2023/12/08 07:45:46;;;;;;;36.65;16.80;;;;;;;5.83;100.00;99680.28;8307896;28;20073;-56
2023/12/08 07:49:46;;;;;;;43.60;18.58;;;;;;;5.87;100.00;99693.28;8307740;28;20088;-54
2023/12/08 07:53:47;;;;;;;37.42;17.13;;;;;;;5.94;100.00;99702.50;8305673;28;20048;-57
2023/12/08 07:57:48;;;;;;;35.05;15.65;;;;;;;5.98;100.00;99714.66;8309280;28;20100;-56
2023/12/08 08:01:48;;;;;;;36.42;17.23;;;;;;;6.04;100.00;99713.31;8307036;28;20038;-56
2023/12/08 08:05:48;;;;;;;40.15;16.75;;;;;;;6.02;100.00;99715.25;8306852;28;20045;-56
2023/12/08 08:09:49;;;;;;;41.10;17.80;;;;;;;6.08;100.00;99709.38;8308814;28;20072;-56
2023/12/08 08:13:50;;;;;;;37.47;17.30;;;;;;;6.23;99.90;99707.19;8305713;28;20042;-57
2023/12/08 08:17:51;;;;;;;44.20;19.63;;;;;;;6.30;99.89;99709.19;8306990;28;20041;-56
2023/12/08 08:21:51;;;;;;;58.85;26.02;;;;;;;6.19;100.00;99713.81;8305034;28;20351;-56
2023/12/08 08:25:52;;;;;;;45.65;20.33;;;;;;;6.25;100.00;99718.66;8304829;28;20120;-56
2023/12/08 08:29:52;;;;;;;35.13;18.23;;;;;;;6.26;100.00;99705.09;8307782;28;20053;-56
2023/12/08 08:33:52;;;;;;;35.22;17.23;;;;;;;6.31;100.00;99721.63;8306424;28;20052;-56
2023/12/08 08:37:53;;;;;;;33.53;15.23;;;;;;;6.40;100.00;99718.16;8305741;28;20038;-55
2023/12/08 08:41:54;;;;;;;40.97;16.85;;;;;;;6.40;100.00;99720.81;8308026;28;20052;-55
2023/12/08 08:45:54;;;;;;;30.88;14.80;;;;;;;6.43;100.00;99730.47;8305875;28;20047;-57
2023/12/08 08:49:55;;;;;;;29.00;15.38;;;;;;;6.38;100.00;99721.97;8305635;28;20046;-55
2023/12/08 08:53:55;;;;;;;35.55;17.33;;;;;;;6.48;100.00;99728.22;8318751;28;20680;-56
2023/12/08 08:57:56;;;;;;;33.28;15.38;;;;;;;6.52;100.00;99741.25;8307149;28;20121;-55
2023/12/08 09:01:56;;;;;;;32.72;16.13;;;;;;;6.56;100.00;99734.59;8304891;28;20069;-55
2023/12/08 09:05:57;;;;;;;37.53;16.20;;;;;;;6.57;100.00;99735.47;8304433;28;20030;-55
2023/12/08 09:09:58;;;;;;;29.08;15.25;;;;;;;6.72;100.00;99752.91;8306871;28;20037;-56
2023/12/08 09:13:58;;;;;;;29.42;14.00;;;;;;;6.79;100.00;99748.69;8303799;28;20045;-58
2023/12/08 09:17:58;;;;;;;29.55;14.50;;;;;;;6.79;100.00;99744.19;8305468;28;20041;-58
2023/12/08 09:21:59;;;;;;;32.92;14.48;;;;;;;6.85;100.00;99748.16;8303153;28;20128;-57
2023/12/08 09:25:59;;;;;;;30.35;14.68;;;;;;;6.82;100.00;99751.13;8306137;28;20124;-56
2023/12/08 09:30:00;;;;;;;27.42;15.05;;;;;;;6.81;100.00;99752.97;8304678;28;20407;-57
2023/12/08 09:34:00;;;;;;;31.10;15.10;;;;;;;6.89;100.00;99750.44;8304356;28;20037;-57
2023/12/08 09:38:01;;;;;;;28.50;14.75;;;;;;;6.91;100.00;99753.84;8306832;28;20502;-57
2023/12/08 09:42:06;;;;;;;30.70;15.07;;;;;;;7.01;100.00;99756.53;8303213;28;20535;-58
2023/12/08 09:46:08;;;;;;;31.00;14.55;;;;;;;7.02;100.00;99769.00;8305895;28;20046;-57
2023/12/08 09:50:11;;;;;;;29.42;14.68;;;;;;;7.08;100.00;99765.78;8304422;28;20041;-57
2023/12/08 09:54:12;;;;;;;23.52;12.50;;;;;;;7.13;100.00;99758.13;8301138;28;20076;-55
2023/12/08 09:58:14;;;;;;;28.42;13.75;;;;;;;7.18;100.00;99762.13;8305801;28;20037;-60
2023/12/08 10:02:15;;;;;;;30.70;13.70;;;;;;;7.25;100.00;99760.59;8299496;28;20062;-58
2023/12/08 10:06:16;;;;;;;27.23;12.32;;;;;;;7.32;100.00;99772.47;8304725;28;20040;-58
2023/12/08 10:10:16;;;;;;;29.00;15.13;;;;;;;7.38;100.00;99768.41;8305036;28;20249;-55
2023/12/08 10:14:19;;;;;;;25.33;13.88;;;;;;;7.45;100.00;99770.41;8302690;28;20042;-55
2023/12/08 10:18:23;;;;;;;27.88;12.98;;;;;;;7.51;100.00;99761.75;8299578;28;20064;-57
2023/12/08 10:22:24;;;;;;;31.63;14.20;;;;;;;7.50;100.00;99768.13;8304163;28;20096;-58
2023/12/08 10:26:24;;;;;;;25.33;12.32;;;;;;;7.58;100.00;99770.97;8307918;28;20033;-57
2023/12/08 10:30:26;;;;;;;27.50;12.70;;;;;;;7.65;100.00;99782.88;8311015;28;20052;-58
2023/12/08 10:34:27;;;;;;;25.02;12.85;;;;;;;7.66;100.00;99779.19;8308771;28;20073;-57
2023/12/08 10:38:28;;;;;;;29.35;12.50;;;;;;;7.70;100.00;99769.88;8311712;28;20050;-57
2023/12/08 10:42:29;;;;;;;21.52;10.75;;;;;;;7.76;100.00;99774.69;8309634;28;20048;-58
2023/12/08 10:46:31;;;;;;;24.27;11.20;;;;;;;7.89;100.00;99780.63;8308655;28;20049;-57
2023/12/08 10:50:33;;;;;;;21.88;11.90;;;;;;;7.91;100.00;99773.28;8311180;28;20037;-58
2023/12/08 10:54:33;;;;;;;22.88;11.38;;;;;;;7.97;100.00;99772.66;8303945;28;20105;-59
2023/12/08 10:58:35;;;;;;;24.35;13.10;;;;;;;8.00;100.00;99777.78;8309271;28;20037;-58
2023/12/08 11:02:36;;;;;;;27.83;11.38;;;;;;;8.06;100.00;99777.19;8308222;28;20049;-58
2023/12/08 11:06:43;;;;;;;18.90;10.18;;;;;;;8.07;100.00;99787.00;8308433;28;20554;-54
2023/12/08 11:10:51;;;;;;;21.70;10.57;;;;;;;8.16;100.00;99787.97;8307642;28;20063;-53
2023/12/08 11:15:04;;;;;;;20.55;10.63;;;;;;;8.27;100.00;99787.00;8305070;28;20049;-53
2023/12/08 11:19:05;;;;;;;20.98;9.63;;;;;;;8.44;100.00;99802.41;8306312;28;20037;-53
2023/12/08 11:23:06;;;;;;;19.40;9.65;;;;;;;8.53;100.00;99801.53;8306137;28;20042;-53
2023/12/08 11:27:20;;;;;;;20.52;10.45;;;;;;;8.47;100.00;99796.72;8331598;28;20061;-53
2023/12/08 11:31:33;;;;;;;17.77;9.10;;;;;;;8.48;100.00;99803.84;8302542;28;20629;-54
2023/12/08 11:35:33;;;;;;;14.95;8.43;;;;;;;8.75;100.00;99812.81;8300370;28;20042;-52
2023/12/08 11:39:40;;;;;;;17.75;8.00;;;;;;;8.76;100.00;99811.00;8298745;28;20065;-55
2023/12/08 11:43:42;;;;;;;21.65;8.85;;;;;;;8.95;100.00;99808.22;8298164;28;20044;-53
2023/12/08 11:47:43;;;;;;;13.55;6.88;;;;;;;8.93;100.00;99810.22;8299692;28;20041;-54
2023/12/08 11:52:10;;;;;;;18.77;8.15;;;;;;;8.79;100.00;99816.94;8299226;28;20054;-54
2023/12/08 11:56:36;;;;;;;23.45;9.18;;;;;;;8.74;100.00;99804.88;8287758;28;20056;-53
2023/12/08 12:00:38;;;;;;;76.18;27.20;;;;;;;8.88;100.00;99812.53;8284072;28;20378;-56
2023/12/08 12:04:39;;;;;;;96.07;27.88;;;;;;;8.94;100.00;99811.94;8298721;28;20080;-54
2023/12/08 12:08:39;;;;;;;141.38;42.25;;;;;;;9.00;100.00;99800.56;8303651;28;20057;-55
2023/12/08 12:12:42;;;;;;;147.55;46.10;;;;;;;9.11;100.00;99813.81;8304847;28;20054;-55
2023/12/08 12:16:43;;;;;;;35.17;13.05;;;;;;;9.20;100.00;99818.34;8305061;28;20042;-54
2023/12/08 12:20:45;;;;;;;38.13;12.15;;;;;;;9.37;100.00;99814.84;8303646;28;20052;-53
2023/12/08 12:24:46;;;;;;;32.72;11.82;;;;;;;9.36;100.00;99818.53;8301794;28;20128;-54
2023/12/08 12:28:48;;;;;;;133.75;34.47;;;;;;;9.58;100.00;99823.53;8302245;28;20033;-54
2023/12/08 12:32:48;;;;;;;46.55;14.43;;;;;;;9.62;100.00;99824.94;8294874;28;20045;-54
2023/12/08 12:36:49;;;;;;;74.97;27.38;;;;;;;9.48;100.00;99826.28;8302333;28;20116;-54
2023/12/08 12:40:53;;;;;;;77.50;28.45;;;;;;;9.52;100.00;99824.97;8303604;28;20079;-56
2023/12/08 12:44:53;;;;;;;34.35;11.10;;;;;;;9.52;100.00;99818.75;8300158;28;20479;-53
2023/12/08 12:48:55;;;;;;;31.98;11.10;;;;;;;9.62;100.00;99825.78;8303646;28;20357;-54
2023/12/08 12:53:04;;;;;;;41.10;12.90;;;;;;;9.72;100.00;99825.72;8299445;28;20033;-53
2023/12/08 12:57:04;;;;;;;65.63;19.85;;;;;;;9.85;100.00;99823.47;8300899;28;20045;-54
2023/12/08 13:01:13;;;;;;;31.33;10.23;;;;;;;9.85;100.00;99826.19;8302025;28;20037;-54
2023/12/08 13:05:14;;;;;;;47.40;16.65;;;;;;;9.97;100.00;99838.44;8302529;28;20037;-56
2023/12/08 13:09:25;;;;;;;30.92;9.15;;;;;;;9.96;100.00;99844.88;8301336;28;20554;-53
2023/12/08 13:13:26;;;;;;;44.20;13.98;;;;;;;10.09;100.00;99856.16;8299968;28;20488;-56
2023/12/08 13:17:27;;;;;;;40.92;14.25;;;;;;;10.14;100.00;99859.25;8303672;28;20399;-54
2023/12/08 13:21:27;;;;;;;28.98;12.07;;;;;;;10.17;100.00;99863.50;8279380;28;20419;-55
2023/12/08 13:25:28;;;;;;;27.92;7.88;;;;;;;9.90;100.00;99864.38;8295164;28;20041;-55
2023/12/08 13:29:29;;;;;;;23.65;7.43;;;;;;;9.94;100.00;99873.84;8305910;28;20100;-55
2023/12/08 13:33:29;;;;;;;23.27;7.25;;;;;;;10.00;100.00;99873.25;8298531;28;20046;-54
2023/12/08 13:37:30;;;;;;;28.38;6.70;;;;;;;10.09;100.00;99872.38;8306643;28;20508;-55
2023/12/08 13:41:31;;;;;;;23.00;6.82;;;;;;;10.12;100.00;99872.06;8300437;28;20455;-54
2023/12/08 13:45:32;;;;;;;22.23;6.25;;;;;;;10.11;100.00;99874.91;8290364;28;20073;-55
2023/12/08 13:49:32;;;;;;;26.20;7.18;;;;;;;10.14;100.00;99875.47;8299330;28;20505;-55
2023/12/08 13:53:33;;;;;;;27.80;7.03;;;;;;;10.22;100.00;99891.78;8293924;28;20065;-54
2023/12/08 13:57:33;;;;;;;23.25;6.28;;;;;;;10.32;100.00;99888.97;8307783;28;20042;-55
2023/12/08 14:01:33;;;;;;;21.52;5.72;;;;;;;10.27;100.00;99886.72;8303791;28;20542;-53
2023/12/08 14:05:34;;;;;;;29.90;7.05;;;;;;;10.30;100.00;99889.13;8295731;28;20092;-53
2023/12/08 14:09:35;;;;;;;21.10;6.00;;;;;;;10.33;100.00;99896.94;8300924;28;20277;-52
2023/12/08 14:13:36;;;;;;;29.58;7.00;;;;;;;10.40;100.00;99898.00;8296320;28;20157;-54
2023/12/08 14:17:37;;;;;;;23.85;5.55;;;;;;;10.33;100.00;99880.72;8282217;28;20046;-54
2023/12/08 14:21:39;;;;;;;27.55;5.75;;;;;;;10.33;100.00;99896.94;8296307;28;20042;-54
2023/12/08 14:25:39;;;;;;;25.90;5.30;;;;;;;10.44;100.00;99896.69;8298132;28;20044;-54
2023/12/08 14:29:40;;;;;;;23.48;6.00;;;;;;;10.46;100.00;99897.38;8301040;28;20041;-56
2023/12/08 14:33:40;;;;;;;33.45;6.70;;;;;;;10.49;100.00;99902.47;8294024;28;20349;-53
2023/12/08 14:37:41;;;;;;;31.90;8.15;;;;;;;10.60;100.00;99899.53;8290007;28;20205;-58
2023/12/08 14:41:41;;;;;;;29.38;8.20;;;;;;;10.51;100.00;99914.00;8294177;28;20712;-59
2023/12/08 14:45:43;;;;;;;26.13;7.70;;;;;;;10.51;100.00;99926.63;8258256;28;20045;-59
2023/12/08 14:49:44;;;;;;;30.15;7.15;;;;;;;10.48;100.00;99922.41;8382508;28;20092;-57
2023/12/08 14:53:45;;;;;;;36.00;9.32;;;;;;;10.43;100.00;99916.59;8348984;28;20111;-59
2023/12/08 14:57:45;;;;;;;56.38;20.83;;;;;;;10.38;100.00;99910.84;8384281;28;20041;-59
2023/12/08 15:01:46;;;;;;;22.90;6.75;;;;;;;10.32;99.97;99910.59;8368007;28;20091;-53
2023/12/08 15:05:47;;;;;;;36.60;12.93;;;;;;;10.27;100.00;99913.75;8340787;28;20044;-56
2023/12/08 15:09:48;;;;;;;21.65;6.93;;;;;;;10.15;100.00;99914.97;8350325;28;20071;-57
2023/12/08 15:13:48;;;;;;;26.05;7.93;;;;;;;10.18;100.00;99930.88;8368822;28;20084;-58
2023/12/08 15:17:49;;;;;;;28.70;9.73;;;;;;;10.27;100.00;99929.13;8387461;28;20713;-57
2023/12/08 15:21:49;;;;;;;15.93;9.05;;;;;;;10.25;100.00;99934.69;8362566;28;20052;-58
2023/12/08 15:25:52;;;;;;;19.05;7.78;;;;;;;10.26;100.00;99939.06;8353758;28;20044;-55
2023/12/08 15:29:53;;;;;;;14.68;5.75;;;;;;;10.20;100.00;99949.63;8369195;28;20044;-60
2023/12/08 15:33:55;;;;;;;18.63;4.25;;;;;;;10.14;100.00;99952.94;8373091;28;20037;-58
2023/12/08 15:37:56;;;;;;;23.80;5.75;;;;;;;10.08;100.00;99957.09;8371592;28;20059;-58
2023/12/08 15:41:58;;;;;;;22.83;5.97;;;;;;;10.13;100.00;99965.59;8388105;28;20808;-57
2023/12/08 15:46:04;;;;;;;14.85;4.72;;;;;;;10.04;100.00;99963.78;8380772;28;20498;-56
2023/12/08 15:50:05;;;;;;;17.45;4.05;;;;;;;10.06;100.00;99969.84;8385945;28;20123;-56
2023/12/08 15:54:06;;;;;;;15.32;4.38;;;;;;;10.06;100.00;99980.66;8367093;28;20155;-57
2023/12/08 15:58:06;;;;;;;16.38;4.63;;;;;;;10.02;99.35;99984.66;8364573;28;20048;-59
2023/12/08 16:02:09;;;;;;;26.70;4.50;;;;;;;9.99;100.00;99979.56;8371661;28;20045;-59
2023/12/08 16:06:13;;;;;;;21.08;5.40;;;;;;;9.94;100.00;99992.66;8368237;28;20132;-57
2023/12/08 16:10:14;;;;;;;24.67;4.80;;;;;;;10.00;100.00;100008.25;8365786;28;20141;-59
2023/12/08 16:14:15;;;;;;;22.30;4.60;;;;;;;9.96;100.00;100018.53;8362082;28;20033;-59
2023/12/08 16:18:15;;;;;;;22.50;5.18;;;;;;;9.98;100.00;100029.19;8368085;28;20072;-58
2023/12/08 16:22:16;;;;;;;18.90;5.38;;;;;;;10.05;100.00;100027.59;8366757;28;20124;-60
2023/12/08 16:26:16;;;;;;;22.42;5.25;;;;;;;10.07;100.00;100028.31;8351487;28;20037;-57
2023/12/08 16:30:17;;;;;;;17.85;4.28;;;;;;;10.02;100.00;100033.28;8372768;28;20040;-57
2023/12/08 16:34:18;;;;;;;15.65;4.93;;;;;;;10.08;100.00;100031.84;8376481;28;20029;-58
2023/12/08 16:38:18;;;;;;;23.67;5.13;;;;;;;9.93;100.00;100034.16;8371434;28;20422;-56
2023/12/08 16:42:20;;;;;;;16.80;3.90;;;;;;;9.95;100.00;100033.00;8372405;28;20072;-56
2023/12/08 16:46:21;;;;;;;13.73;4.30;;;;;;;9.93;100.00;100036.88;8373065;28;20506;-58
2023/12/08 16:50:21;;;;;;;26.13;5.22;;;;;;;9.90;100.00;100045.25;8354204;28;20043;-57
2023/12/08 16:54:22;;;;;;;22.63;5.28;;;;;;;10.03;100.00;100057.44;8361200;28;20044;-56
2023/12/08 16:58:22;;;;;;;23.35;4.50;;;;;;;10.08;100.00;100059.72;8362791;28;20055;-56
2023/12/08 17:02:23;;;;;;;37.08;10.02;;;;;;;10.16;100.00;100053.56;8339836;28;20490;-55
2023/12/08 17:06:23;;;;;;;49.42;11.30;;;;;;;10.31;100.00;100058.31;8363670;28;20494;-55
2023/12/08 17:10:24;;;;;;;27.80;6.60;;;;;;;10.39;100.00;100063.84;8360163;28;20064;-54
2023/12/08 17:14:24;;;;;;;24.30;6.10;;;;;;;10.38;100.00;100064.84;8346052;28;20123;-54
2023/12/08 17:18:25;;;;;;;19.13;6.15;;;;;;;10.24;100.00;100069.91;8363953;28;20032;-54
2023/12/08 17:22:25;;;;;;;19.90;5.75;;;;;;;10.30;100.00;100072.84;8358450;28;20041;-54
2023/12/08 17:26:26;;;;;;;21.90;5.40;;;;;;;10.33;100.00;100079.78;8342265;28;20521;-55
2023/12/08 17:30:27;;;;;;;25.20;5.75;;;;;;;10.33;100.00;100079.78;8361169;28;20037;-55
2023/12/08 17:34:27;;;;;;;21.27;7.43;;;;;;;10.34;100.00;100086.91;8362305;28;20503;-54
2023/12/08 17:38:28;;;;;;;25.58;6.80;;;;;;;10.39;100.00;100093.56;8359415;28;20473;-54
2023/12/08 17:42:28;;;;;;;22.30;5.15;;;;;;;10.36;100.00;100091.16;8364299;28;20041;-54
2023/12/08 17:46:28;;;;;;;24.52;7.55;;;;;;;10.37;100.00;100084.75;8363140;28;20508;-53
2023/12/08 17:50:29;;;;;;;22.92;5.15;;;;;;;10.45;100.00;100092.97;8349048;28;20548;-54
2023/12/08 17:54:29;;;;;;;18.65;5.45;;;;;;;10.44;100.00;100093.97;8366471;28;20044;-54
2023/12/08 17:58:30;;;;;;;18.83;3.90;;;;;;;10.49;100.00;100097.06;8368734;28;20075;-56
2023/12/08 18:02:31;;;;;;;17.00;5.25;;;;;;;10.57;100.00;100099.88;8370905;28;20102;-55
2023/12/08 18:06:32;;;;;;;17.90;4.57;;;;;;;10.61;100.00;100105.84;8366870;28;20048;-58
2023/12/08 18:10:32;;;;;;;20.50;5.72;;;;;;;10.60;100.00;100114.91;8370506;28;20117;-59
2023/12/08 18:14:34;;;;;;;22.05;6.20;;;;;;;10.57;100.00;100116.09;8370468;28;20037;-57
2023/12/08 18:18:35;;;;;;;19.13;4.88;;;;;;;10.60;100.00;100121.19;8368738;28;20041;-58
2023/12/08 18:22:36;;;;;;;15.00;4.63;;;;;;;10.53;100.00;100130.91;8348880;28;20124;-59
2023/12/08 18:26:36;;;;;;;14.77;4.72;;;;;;;10.58;100.00;100122.34;8370052;28;20489;-60
2023/12/08 18:30:36;;;;;;;15.73;4.50;;;;;;;10.51;100.00;100124.78;8367833;28;20117;-58
2023/12/08 18:34:37;;;;;;;16.92;4.25;;;;;;;10.43;100.00;100124.69;8367999;28;20045;-58